createdAt,value
2022-12-06T00:01:25.959Z,99.90
2022-12-06T00:03:56.711Z,99.90
2022-12-06T00:06:25.737Z,99.90
2022-12-06T00:08:53.979Z,99.90
2022-12-06T00:11:22.925Z,99.90
2022-12-06T00:13:53.817Z,99.90
2022-12-06T00:16:21.913Z,99.90
2022-12-06T00:18:50.165Z,99.90
2022-12-06T00:21:21.002Z,99.90
2022-12-06T00:23:50.302Z,99.90
2022-12-06T00:26:18.603Z,99.90
2022-12-06T00:28:46.657Z,99.90
2022-12-06T00:31:16.270Z,99.90
2022-12-06T00:33:44.543Z,99.90
2022-12-06T00:36:13.483Z,99.90
2022-12-06T00:38:43.194Z,99.90
2022-12-06T00:41:12.518Z,99.90
2022-12-06T00:43:40.902Z,99.90
2022-12-06T00:46:09.623Z,99.90
2022-12-06T00:48:37.756Z,99.90
2022-12-06T00:51:06.268Z,99.90
2022-12-06T00:53:34.312Z,99.90
2022-12-06T00:56:03.760Z,99.90
2022-12-06T00:58:32.149Z,99.90
2022-12-06T01:01:08.078Z,99.90
2022-12-06T01:03:36.278Z,99.90
2022-12-06T01:06:05.254Z,99.90
2022-12-06T01:08:33.764Z,99.90
2022-12-06T01:11:03.007Z,99.90
2022-12-06T01:13:30.969Z,99.90
2022-12-06T01:15:59.256Z,99.90
2022-12-06T01:18:27.076Z,99.90
2022-12-06T01:20:54.923Z,99.90
2022-12-06T01:23:22.695Z,99.90
2022-12-06T01:25:51.277Z,99.90
2022-12-06T01:28:20.471Z,99.90
2022-12-06T01:30:48.444Z,99.90
2022-12-06T01:33:16.327Z,99.90
2022-12-06T01:35:44.371Z,99.90
2022-12-06T01:38:12.808Z,99.90
2022-12-06T01:40:41.805Z,99.90
2022-12-06T01:43:24.480Z,99.90
2022-12-06T01:45:53.996Z,99.90
2022-12-06T01:48:23.654Z,99.90
2022-12-06T01:50:52.124Z,99.90
2022-12-06T01:53:25.281Z,99.90
2022-12-06T01:55:54.037Z,99.90
2022-12-06T01:58:27.266Z,99.90
2022-12-06T02:00:56.510Z,99.90
2022-12-06T02:03:25.311Z,99.90
2022-12-06T02:05:53.263Z,99.90
2022-12-06T02:08:21.648Z,99.90
2022-12-06T02:10:49.597Z,99.90
2022-12-06T02:13:17.584Z,99.90
2022-12-06T02:15:50.451Z,99.90
2022-12-06T02:18:23.409Z,99.90
2022-12-06T02:20:54.087Z,99.90
2022-12-06T02:23:32.243Z,99.90
2022-12-06T02:26:14.911Z,99.90
2022-12-06T02:28:55.813Z,99.90
2022-12-06T02:31:27.777Z,99.90
2022-12-06T02:34:00.213Z,99.90
2022-12-06T02:36:31.334Z,99.90
2022-12-06T02:39:00.724Z,99.90
2022-12-06T02:41:33.149Z,99.90
2022-12-06T02:44:04.230Z,99.90
2022-12-06T02:46:35.180Z,99.90
2022-12-06T02:49:03.814Z,99.90
2022-12-06T02:51:32.848Z,99.90
2022-12-06T02:54:02.191Z,99.90
2022-12-06T02:56:31.993Z,99.90
2022-12-06T02:58:59.991Z,99.90
2022-12-06T03:01:30.300Z,99.90
2022-12-06T03:04:08.355Z,99.90
2022-12-06T03:06:54.149Z,99.90
2022-12-06T03:09:29.257Z,99.90
2022-12-06T03:11:59.502Z,99.90
2022-12-06T03:14:28.723Z,99.90
2022-12-06T03:17:01.388Z,99.90
2022-12-06T03:19:31.863Z,99.90
2022-12-06T03:22:02.732Z,99.90
2022-12-06T03:24:32.730Z,99.90
2022-12-06T03:27:01.760Z,99.90
2022-12-06T03:29:31.665Z,99.90
2022-12-06T03:32:01.215Z,99.90
2022-12-06T03:34:31.807Z,99.90
2022-12-06T03:37:03.855Z,99.90
2022-12-06T03:39:34.772Z,99.90
2022-12-06T03:42:03.103Z,99.90
2022-12-06T03:44:30.989Z,99.90
2022-12-06T03:47:03.182Z,99.90
2022-12-06T03:49:35.315Z,99.90
2022-12-06T03:52:03.408Z,99.90
2022-12-06T03:54:31.291Z,99.90
2022-12-06T03:56:59.131Z,99.90
2022-12-06T03:59:26.971Z,99.90
2022-12-06T04:01:54.926Z,99.90
2022-12-06T04:04:22.899Z,99.90
2022-12-06T04:06:52.121Z,99.90
2022-12-06T04:09:37.448Z,99.90
2022-12-06T04:12:26.178Z,99.90
2022-12-06T04:14:54.075Z,99.90
2022-12-06T04:17:39.479Z,99.90
2022-12-06T04:20:08.006Z,99.90
2022-12-06T04:22:55.038Z,99.90
2022-12-06T04:25:22.940Z,99.90
2022-12-06T04:28:19.799Z,99.90
2022-12-06T04:31:05.265Z,99.90
2022-12-06T04:33:50.615Z,99.90
2022-12-06T04:36:35.662Z,99.90
2022-12-06T04:39:05.318Z,99.90
2022-12-06T04:41:52.861Z,99.90
2022-12-06T04:44:20.770Z,99.90
2022-12-06T04:46:48.623Z,99.90
2022-12-06T04:49:16.809Z,99.90
2022-12-06T04:51:44.638Z,99.90
2022-12-06T04:54:13.852Z,99.90
2022-12-06T04:56:41.662Z,99.90
2022-12-06T04:59:09.500Z,99.90
2022-12-06T05:01:37.340Z,99.90
2022-12-06T05:04:05.621Z,99.90
2022-12-06T05:06:33.532Z,99.90
2022-12-06T05:09:01.371Z,99.90
2022-12-06T05:11:30.603Z,99.90
2022-12-06T05:13:58.452Z,99.90
2022-12-06T05:16:26.344Z,99.90
2022-12-06T05:18:54.220Z,99.90
2022-12-06T05:21:23.109Z,99.90
2022-12-06T05:23:51.119Z,99.90
2022-12-06T05:26:19.989Z,99.90
2022-12-06T05:28:49.188Z,99.90
2022-12-06T05:31:17.441Z,99.90
2022-12-06T05:33:45.311Z,99.90
2022-12-06T05:36:14.173Z,99.90
2022-12-06T05:38:45.743Z,99.90
2022-12-06T05:41:16.618Z,99.90
2022-12-06T05:43:44.507Z,99.90
2022-12-06T05:46:13.785Z,99.90
2022-12-06T05:48:41.631Z,99.90
2022-12-06T05:51:09.572Z,99.90
2022-12-06T05:53:37.429Z,99.90
2022-12-06T05:56:06.622Z,99.90
2022-12-06T05:58:34.523Z,99.90
2022-12-06T06:01:02.364Z,99.90
2022-12-06T06:03:31.648Z,99.90
2022-12-06T06:06:00.710Z,99.90
2022-12-06T06:08:28.939Z,99.90
2022-12-06T06:10:57.028Z,99.90
2022-12-06T06:13:25.000Z,99.90
2022-12-06T06:15:52.859Z,99.90
2022-12-06T06:18:20.983Z,99.90
2022-12-06T06:20:51.321Z,99.90
2022-12-06T06:23:19.681Z,99.90
2022-12-06T06:25:47.724Z,99.90
2022-12-06T06:28:15.599Z,99.90
2022-12-06T06:30:43.720Z,99.90
2022-12-06T06:33:11.635Z,99.90
2022-12-06T06:35:39.847Z,99.90
2022-12-06T06:38:09.096Z,99.90
2022-12-06T06:40:36.969Z,99.90
2022-12-06T06:43:18.931Z,99.90
2022-12-06T06:45:47.200Z,99.90
2022-12-06T06:48:15.087Z,99.90
2022-12-06T06:50:42.895Z,99.90
2022-12-06T06:53:12.137Z,99.90
2022-12-06T06:55:40.115Z,99.90
2022-12-06T06:58:08.008Z,99.90
2022-12-06T07:00:35.898Z,99.90
2022-12-06T07:03:04.052Z,99.90
2022-12-06T07:05:31.901Z,99.90
2022-12-06T07:07:59.771Z,99.90
2022-12-06T07:10:29.017Z,99.90
2022-12-06T07:12:56.864Z,99.90
2022-12-06T07:15:24.676Z,99.90
2022-12-06T07:17:53.606Z,99.90
2022-12-06T07:20:21.428Z,99.90
2022-12-06T07:22:49.238Z,99.90
2022-12-06T07:25:17.172Z,99.90
2022-12-06T07:27:46.430Z,99.90
2022-12-06T07:30:17.336Z,99.90
2022-12-06T07:32:46.102Z,99.90
2022-12-06T07:35:13.996Z,99.90
2022-12-06T07:37:42.896Z,99.90
2022-12-06T07:40:11.360Z,99.90
2022-12-06T07:42:56.654Z,99.90
2022-12-06T07:45:25.884Z,99.90
2022-12-06T07:47:53.744Z,99.90
2022-12-06T07:50:23.054Z,99.90
2022-12-06T07:52:51.690Z,99.90
2022-12-06T07:55:19.635Z,99.90
2022-12-06T07:57:47.470Z,99.90
2022-12-06T08:00:16.073Z,99.90
2022-12-06T08:02:45.614Z,99.90
2022-12-06T08:05:13.447Z,99.90
2022-12-06T08:07:41.383Z,99.90
2022-12-06T08:10:09.547Z,99.90
2022-12-06T08:12:37.481Z,99.90
2022-12-06T08:15:05.635Z,99.90
2022-12-06T08:17:33.549Z,99.90
2022-12-06T08:20:03.044Z,99.90
2022-12-06T08:22:31.111Z,99.90
2022-12-06T08:24:58.936Z,99.90
2022-12-06T08:27:26.822Z,99.90
2022-12-06T08:29:54.663Z,99.90
2022-12-06T08:32:22.533Z,99.90
2022-12-06T08:34:50.550Z,99.90
2022-12-06T08:37:19.753Z,99.90
2022-12-06T08:39:47.566Z,99.90
2022-12-06T08:42:16.801Z,99.90
2022-12-06T08:44:46.258Z,99.90
2022-12-06T08:47:14.130Z,99.90
2022-12-06T08:49:41.943Z,99.90
2022-12-06T08:52:09.967Z,99.90
2022-12-06T08:54:40.612Z,99.90
2022-12-06T08:57:10.781Z,99.90
2022-12-06T08:59:38.623Z,99.90
2022-12-06T09:02:06.588Z,99.90
2022-12-06T09:04:34.568Z,99.90
2022-12-06T09:07:03.216Z,99.90
2022-12-06T09:09:33.113Z,99.90
2022-12-06T09:12:02.320Z,99.90
2022-12-06T09:14:30.236Z,99.90
2022-12-06T09:16:58.072Z,99.90
2022-12-06T09:21:56.127Z,99.90
2022-12-06T09:24:24.086Z,99.90
2022-12-06T09:26:51.954Z,99.90
2022-12-06T09:29:21.142Z,99.90
2022-12-06T09:31:49.058Z,99.90
2022-12-06T09:34:17.589Z,99.90
2022-12-06T09:36:47.449Z,99.90
2022-12-06T09:39:17.308Z,99.90
2022-12-06T09:42:12.087Z,99.90
2022-12-06T09:44:49.036Z,99.90
2022-12-06T09:47:22.356Z,99.90
2022-12-06T09:49:55.393Z,99.90
2022-12-06T09:52:30.814Z,99.90
2022-12-06T09:55:06.948Z,99.90
2022-12-06T09:57:38.941Z,99.90
2022-12-06T10:00:11.761Z,99.90
2022-12-06T10:03:04.354Z,95.60
2022-12-06T10:05:35.845Z,70.30
2022-12-06T10:08:09.503Z,1.00
2022-12-06T10:10:44.273Z,1.00
2022-12-06T10:13:13.755Z,99.90
2022-12-06T10:15:47.655Z,99.90
2022-12-06T10:18:22.746Z,99.90
2022-12-06T10:20:52.738Z,99.20
2022-12-06T10:23:28.916Z,99.90
2022-12-06T10:26:00.557Z,1.00
2022-12-06T10:28:34.318Z,99.90
2022-12-06T10:31:07.567Z,1.00
2022-12-06T10:33:39.688Z,99.90
2022-12-06T10:36:09.158Z,99.90
2022-12-06T10:38:40.440Z,98.20
2022-12-06T10:41:13.026Z,99.90
2022-12-06T10:43:45.308Z,1.00
2022-12-06T10:46:35.436Z,99.90
2022-12-06T10:49:07.838Z,99.90
2022-12-06T10:51:38.229Z,99.90
2022-12-06T10:54:11.676Z,99.90
2022-12-06T10:56:40.860Z,99.90
2022-12-06T10:59:16.733Z,99.90
2022-12-06T11:01:46.399Z,11.70
2022-12-06T11:04:17.060Z,97.70
2022-12-06T11:06:50.111Z,64.50
2022-12-06T11:09:24.788Z,1.00
2022-12-06T11:11:52.609Z,1.00
2022-12-06T11:14:24.720Z,1.00
2022-12-06T11:16:55.714Z,1.00
2022-12-06T11:19:28.011Z,1.00
2022-12-06T11:22:00.129Z,1.00
2022-12-06T11:24:31.815Z,1.00
2022-12-06T11:27:02.759Z,1.00
2022-12-06T11:29:30.985Z,1.00
2022-12-06T11:32:01.366Z,1.00
2022-12-06T11:34:32.166Z,1.00
2022-12-06T11:37:00.869Z,1.00
2022-12-06T11:39:29.137Z,1.00
2022-12-06T11:41:58.335Z,1.00
2022-12-06T11:44:27.541Z,99.90
2022-12-06T11:46:56.841Z,99.90
2022-12-06T11:49:28.800Z,99.90
2022-12-06T11:51:56.983Z,99.90
2022-12-06T11:54:27.458Z,99.90
2022-12-06T11:56:58.074Z,99.90
2022-12-06T11:59:26.705Z,99.90
2022-12-06T12:01:56.060Z,99.90
2022-12-06T12:04:25.254Z,99.90
2022-12-06T12:06:57.505Z,99.90
2022-12-06T12:09:27.253Z,99.90
2022-12-06T12:11:57.824Z,99.90
2022-12-06T12:14:27.802Z,99.90
2022-12-06T12:16:59.003Z,99.90
2022-12-06T12:19:32.647Z,99.90
2022-12-06T12:22:14.517Z,99.90
2022-12-06T12:27:44.013Z,99.90
2022-12-06T12:30:25.562Z,99.90
2022-12-06T12:33:04.743Z,99.90
2022-12-06T12:35:33.168Z,99.90
2022-12-06T12:38:05.063Z,99.90
2022-12-06T12:40:36.332Z,99.90
2022-12-06T12:43:05.688Z,99.90
2022-12-06T12:45:33.876Z,99.90
2022-12-06T12:48:02.771Z,99.90
2022-12-06T12:50:31.236Z,99.90
2022-12-06T12:53:00.610Z,99.90
2022-12-06T12:55:30.964Z,99.90
2022-12-06T12:57:59.968Z,99.90
2022-12-06T13:00:30.685Z,99.90
2022-12-06T13:02:59.715Z,99.90
2022-12-06T13:05:33.645Z,99.90
2022-12-06T13:08:07.058Z,99.90
2022-12-06T13:10:38.037Z,99.90
2022-12-06T13:13:07.540Z,99.90
2022-12-06T13:15:36.258Z,99.90
2022-12-06T13:18:07.647Z,99.90
2022-12-06T13:20:35.727Z,99.90
2022-12-06T13:23:06.791Z,99.90
2022-12-06T13:25:36.903Z,99.90
2022-12-06T13:28:06.048Z,99.90
2022-12-06T13:30:34.800Z,99.90
2022-12-06T13:33:05.814Z,99.90
2022-12-06T13:35:35.962Z,99.90
2022-12-06T13:38:04.694Z,99.90
2022-12-06T13:40:39.588Z,99.90
2022-12-06T13:43:27.456Z,99.90
2022-12-06T13:45:55.770Z,99.90
2022-12-06T13:48:36.218Z,99.90
2022-12-06T13:51:05.321Z,99.90
2022-12-06T13:53:34.210Z,99.90
2022-12-06T13:56:23.507Z,99.90
2022-12-06T13:58:52.944Z,99.90
2022-12-06T14:01:44.809Z,99.90
2022-12-06T14:07:00.391Z,99.90
2022-12-06T14:09:29.672Z,99.90
2022-12-06T14:12:01.669Z,99.90
2022-12-06T14:14:29.729Z,99.90
2022-12-06T14:16:59.388Z,99.90
2022-12-06T14:19:30.738Z,99.90
2022-12-06T14:21:59.566Z,99.90
2022-12-06T14:24:32.036Z,99.90
2022-12-06T14:27:12.162Z,99.90
2022-12-06T14:29:40.326Z,99.90
2022-12-06T14:32:08.545Z,99.90
2022-12-06T14:34:37.301Z,99.90
2022-12-06T14:37:12.618Z,99.90
2022-12-06T14:42:36.152Z,1.00
2022-12-06T14:45:05.033Z,1.00
2022-12-06T14:47:33.221Z,99.90
2022-12-06T14:50:19.214Z,99.90
2022-12-06T14:52:57.300Z,99.90
2022-12-06T14:55:25.629Z,1.00
2022-12-06T14:57:57.940Z,99.90
2022-12-06T15:00:28.243Z,1.00
2022-12-06T15:03:01.774Z,97.10
2022-12-06T15:05:37.596Z,99.90
2022-12-06T15:08:24.408Z,99.90
2022-12-06T15:10:55.565Z,99.90
2022-12-06T15:13:24.393Z,99.90
2022-12-06T15:16:01.988Z,99.90
2022-12-06T15:18:30.907Z,99.90
2022-12-06T15:25:55.577Z,99.90
2022-12-06T15:28:25.074Z,1.00
2022-12-06T15:33:22.537Z,1.00
2022-12-06T15:38:18.680Z,1.00
2022-12-06T15:43:22.458Z,15.70
2022-12-06T15:45:51.748Z,99.90
2022-12-06T15:48:19.717Z,42.30
2022-12-06T15:50:47.596Z,1.00
2022-12-06T15:53:15.533Z,1.00
2022-12-06T15:55:43.436Z,1.00
2022-12-06T15:58:11.298Z,99.90
2022-12-06T16:00:39.164Z,99.90
2022-12-06T16:03:08.835Z,99.90
2022-12-06T16:05:36.858Z,99.90
2022-12-06T16:08:04.905Z,99.90
2022-12-06T16:11:02.982Z,99.90
2022-12-06T16:13:23.748Z,99.90
2022-12-06T16:15:52.386Z,1.00
2022-12-06T16:18:21.720Z,1.00
2022-12-06T16:20:49.626Z,40.20
2022-12-06T16:24:10.887Z,1.00
2022-12-06T16:26:23.559Z,1.00
2022-12-06T16:28:51.426Z,99.90
2022-12-06T16:31:19.372Z,99.90
2022-12-06T16:33:48.737Z,70.00
2022-12-06T16:36:18.569Z,1.00
2022-12-06T16:41:19.140Z,1.00
2022-12-06T16:43:49.143Z,99.90
2022-12-06T16:46:27.409Z,1.00
2022-12-06T16:51:25.200Z,99.90
2022-12-06T16:53:53.408Z,1.00
2022-12-06T16:56:21.450Z,99.90
2022-12-06T16:58:49.298Z,1.00
2022-12-06T17:01:21.367Z,1.00
2022-12-06T17:03:52.964Z,1.00
2022-12-06T17:06:21.092Z,99.90
2022-12-06T17:08:51.122Z,45.30
2022-12-06T17:11:37.710Z,99.90
2022-12-06T17:14:05.647Z,99.90
2022-12-06T17:16:34.500Z,99.90
2022-12-06T17:19:02.856Z,99.90
2022-12-06T17:21:30.836Z,99.90
2022-12-06T17:26:30.521Z,99.90
2022-12-06T17:28:59.112Z,99.90
2022-12-06T17:31:27.156Z,99.90
2022-12-06T17:33:55.285Z,1.00
2022-12-06T17:36:25.256Z,99.90
2022-12-06T17:38:53.334Z,99.90
2022-12-06T17:41:39.420Z,1.00
2022-12-06T17:44:09.495Z,99.90
2022-12-06T17:46:37.651Z,99.90
2022-12-06T17:49:06.011Z,1.00
2022-12-06T17:51:34.138Z,1.00
2022-12-06T17:54:07.570Z,99.90
2022-12-06T17:56:37.886Z,99.90
2022-12-06T17:59:06.994Z,99.90
2022-12-06T18:02:06.117Z,99.90
2022-12-06T18:04:24.465Z,24.70
2022-12-06T18:06:52.307Z,1.00
2022-12-06T18:09:20.156Z,99.90
2022-12-06T18:11:48.900Z,1.00
2022-12-06T18:14:17.107Z,15.50
2022-12-06T18:16:47.989Z,1.00
2022-12-06T18:19:17.036Z,99.90
2022-12-06T18:21:44.987Z,1.00
2022-12-06T18:24:21.557Z,99.90
2022-12-06T18:26:50.258Z,1.00
2022-12-06T18:29:19.244Z,99.90
2022-12-06T18:31:48.576Z,99.90
2022-12-06T18:34:16.893Z,99.90
2022-12-06T18:36:44.742Z,1.00
2022-12-06T18:39:15.661Z,99.90
2022-12-06T18:41:44.118Z,99.90
2022-12-06T18:44:12.649Z,99.90
2022-12-06T18:46:42.542Z,99.90
2022-12-06T18:49:12.733Z,1.00
2022-12-06T18:51:40.611Z,99.90
2022-12-06T18:54:08.601Z,99.90
2022-12-06T18:56:36.710Z,1.00
2022-12-06T18:59:05.622Z,99.90
2022-12-06T19:06:33.917Z,1.00
2022-12-06T19:09:02.303Z,1.00
2022-12-06T19:11:30.173Z,1.00
2022-12-06T19:21:25.663Z,1.00
2022-12-06T19:23:55.248Z,1.00
2022-12-06T19:28:51.349Z,4.60
2022-12-06T19:31:19.814Z,28.30
2022-12-06T19:33:47.731Z,1.00
2022-12-06T19:36:16.624Z,1.00
2022-12-06T19:38:44.813Z,1.00
2022-12-06T19:41:15.073Z,1.00
2022-12-06T19:44:00.870Z,1.00
2022-12-06T19:46:29.636Z,8.20
2022-12-06T19:48:58.478Z,30.90
2022-12-06T19:51:28.890Z,1.50
2022-12-06T19:53:58.017Z,1.00
2022-12-06T19:56:27.650Z,1.00
2022-12-06T19:58:57.201Z,1.00
2022-12-06T20:01:25.684Z,1.00
2022-12-06T20:03:54.476Z,1.00
2022-12-06T20:06:23.352Z,1.00
2022-12-06T20:08:51.977Z,1.00
2022-12-06T20:11:38.703Z,1.00
2022-12-06T20:14:09.457Z,26.10
2022-12-06T20:16:37.927Z,16.70
2022-12-06T20:19:06.284Z,35.70
2022-12-06T20:21:34.167Z,88.90
2022-12-06T20:24:02.293Z,50.10
2022-12-06T20:26:30.667Z,1.00
2022-12-06T20:28:58.736Z,35.20
2022-12-06T20:38:53.628Z,99.90
2022-12-06T20:41:22.396Z,87.60
2022-12-06T20:43:51.089Z,89.50
2022-12-06T20:46:19.875Z,74.00
2022-12-06T20:48:47.759Z,63.30
2022-12-06T20:51:16.602Z,12.00
2022-12-06T20:53:47.205Z,65.10
2022-12-06T20:56:17.659Z,67.00
2022-12-06T20:58:45.932Z,45.00
2022-12-06T21:01:14.338Z,56.20
2022-12-06T21:03:42.248Z,99.90
2022-12-06T21:06:10.892Z,91.70
2022-12-06T21:08:39.170Z,99.90
2022-12-06T21:11:24.132Z,99.90
2022-12-06T21:13:54.497Z,98.00
2022-12-06T21:16:23.558Z,99.90
2022-12-06T21:18:55.232Z,90.00
2022-12-06T21:21:23.616Z,69.10
2022-12-06T21:23:51.447Z,55.50
2022-12-06T21:26:19.357Z,34.20
2022-12-06T21:28:47.236Z,31.00
2022-12-06T21:31:16.487Z,93.70
2022-12-06T21:33:44.337Z,99.90
2022-12-06T21:36:13.007Z,99.90
2022-12-06T21:41:09.887Z,99.90
2022-12-06T21:43:37.862Z,99.90
2022-12-06T21:46:07.139Z,99.90
2022-12-06T21:48:36.450Z,99.90
2022-12-06T21:51:04.973Z,99.90
2022-12-06T21:53:32.975Z,99.90
2022-12-06T21:56:01.054Z,99.90
2022-12-06T21:58:30.356Z,99.90
2022-12-06T22:01:03.881Z,74.30
2022-12-06T22:03:31.798Z,99.90
2022-12-06T22:06:03.912Z,99.90
2022-12-06T22:08:31.801Z,99.90
2022-12-06T22:10:59.735Z,99.90
2022-12-06T22:18:23.928Z,99.90
2022-12-06T22:21:02.813Z,99.90
2022-12-06T22:23:31.072Z,99.90
2022-12-06T22:25:59.261Z,99.90
2022-12-06T22:28:27.380Z,99.90
2022-12-06T22:30:55.264Z,99.90
2022-12-06T22:33:23.117Z,99.90
2022-12-06T22:35:50.961Z,99.90
2022-12-06T22:38:20.152Z,99.90
2022-12-06T22:40:55.626Z,99.90
2022-12-06T22:43:23.516Z,99.90
2022-12-06T22:45:51.372Z,99.90
2022-12-06T22:48:19.432Z,99.90
2022-12-06T22:50:47.321Z,99.90
2022-12-06T22:53:15.194Z,99.90
2022-12-06T22:55:44.374Z,99.90
2022-12-06T22:58:12.217Z,99.90
2022-12-06T23:00:40.060Z,99.90
2022-12-06T23:03:07.894Z,99.90
2022-12-06T23:05:35.743Z,99.90
2022-12-06T23:08:03.660Z,99.90
2022-12-06T23:10:31.502Z,99.90
2022-12-06T23:13:00.740Z,99.90
2022-12-06T23:15:28.574Z,99.90
2022-12-06T23:17:56.430Z,99.90
2022-12-06T23:20:24.253Z,99.90
2022-12-06T23:22:52.096Z,99.90
2022-12-06T23:25:19.929Z,99.90
2022-12-06T23:27:47.798Z,99.90
2022-12-06T23:30:17.302Z,99.90
2022-12-06T23:32:45.147Z,99.90
2022-12-06T23:35:13.005Z,99.90
2022-12-06T23:37:41.443Z,99.90
2022-12-06T23:40:09.838Z,99.90
2022-12-06T23:42:37.692Z,99.90
2022-12-06T23:45:05.845Z,99.90
2022-12-06T23:47:35.051Z,99.90
2022-12-06T23:50:03.169Z,99.90
2022-12-06T23:52:31.288Z,99.90
2022-12-06T23:54:59.712Z,99.90
2022-12-06T23:57:27.532Z,99.90
2022-12-06T23:59:55.377Z,99.90
